createdAt,value
2019-03-17T00:01:23.726Z,133.93
2019-03-17T00:03:50.964Z,134.75
2019-03-17T00:06:18.047Z,133.47
2019-03-17T00:08:46.215Z,133.85
2019-03-17T00:11:13.502Z,133.95
2019-03-17T00:13:40.923Z,133.50
2019-03-17T00:16:08.230Z,134.40
2019-03-17T00:18:35.366Z,133.78
2019-03-17T00:21:02.399Z,133.05
2019-03-17T00:23:29.455Z,134.05
2019-03-17T00:25:56.637Z,132.65
2019-03-17T00:28:24.068Z,133.72
2019-03-17T00:30:51.113Z,133.80
2019-03-17T00:33:18.252Z,133.78
2019-03-17T00:35:45.405Z,133.85
2019-03-17T00:38:12.455Z,135.22
2019-03-17T00:40:39.617Z,133.67
2019-03-17T00:43:07.054Z,134.18
2019-03-17T00:45:34.508Z,134.67
2019-03-17T00:48:03.820Z,133.35
2019-03-17T00:50:31.279Z,133.27
2019-03-17T00:52:58.465Z,133.45
2019-03-17T00:55:25.674Z,134.93
2019-03-17T00:57:52.739Z,133.22
2019-03-17T01:00:20.978Z,133.97
2019-03-17T01:02:48.355Z,134.03
2019-03-17T01:05:16.651Z,134.70
2019-03-17T01:07:43.984Z,133.67
2019-03-17T01:10:11.071Z,135.00
2019-03-17T01:12:38.134Z,134.22
2019-03-17T01:15:06.100Z,134.03
2019-03-17T01:17:33.175Z,134.95
2019-03-17T01:20:00.373Z,134.05
2019-03-17T01:22:27.586Z,134.32
2019-03-17T01:24:54.930Z,134.40
2019-03-17T01:27:21.984Z,133.80
2019-03-17T01:29:49.076Z,134.37
2019-03-17T01:32:16.485Z,132.90
2019-03-17T01:34:45.387Z,134.37
2019-03-17T01:37:14.043Z,133.90
2019-03-17T01:39:41.153Z,133.22
2019-03-17T01:42:08.220Z,134.30
2019-03-17T01:44:35.406Z,133.65
2019-03-17T01:47:03.986Z,135.50
2019-03-17T01:49:31.024Z,134.32
2019-03-17T01:51:58.076Z,133.27
2019-03-17T01:54:25.171Z,133.27
2019-03-17T01:56:52.235Z,132.78
2019-03-17T01:59:20.367Z,132.27
2019-03-17T02:01:47.460Z,133.15
2019-03-17T02:04:14.489Z,132.40
2019-03-17T02:06:41.892Z,132.90
2019-03-17T02:09:09.261Z,132.50
2019-03-17T02:11:36.436Z,134.50
2019-03-17T02:14:03.491Z,132.52
2019-03-17T02:16:30.568Z,133.80
2019-03-17T02:18:57.894Z,133.75
2019-03-17T02:21:24.933Z,134.22
2019-03-17T02:23:51.990Z,133.70
2019-03-17T02:26:19.528Z,132.87
2019-03-17T02:28:46.563Z,133.52
2019-03-17T02:31:13.655Z,133.30
2019-03-17T02:33:40.993Z,133.57
2019-03-17T02:36:09.113Z,133.30
2019-03-17T02:38:37.264Z,135.03
2019-03-17T02:41:05.125Z,133.97
2019-03-17T02:43:32.172Z,133.55
2019-03-17T02:46:02.757Z,134.37
2019-03-17T02:48:28.482Z,133.90
2019-03-17T02:50:55.506Z,133.20
2019-03-17T02:53:22.557Z,133.05
2019-03-17T02:55:49.620Z,133.75
2019-03-17T02:58:17.046Z,133.25
2019-03-17T03:00:44.138Z,133.65
2019-03-17T03:03:11.149Z,133.32
2019-03-17T03:05:53.928Z,134.70
2019-03-17T03:08:07.696Z,133.03
2019-03-17T03:10:36.520Z,132.55
2019-03-17T03:13:03.527Z,132.70
2019-03-17T03:15:30.608Z,135.80
2019-03-17T03:17:57.630Z,134.30
2019-03-17T03:20:25.034Z,132.65
2019-03-17T03:22:52.144Z,134.70
2019-03-17T03:25:19.194Z,135.18
2019-03-17T03:27:46.254Z,134.03
2019-03-17T03:30:13.334Z,135.35
2019-03-17T03:32:40.534Z,134.45
2019-03-17T03:35:08.133Z,133.82
2019-03-17T03:37:35.266Z,133.27
2019-03-17T03:40:02.646Z,134.25
2019-03-17T03:42:30.371Z,132.72
2019-03-17T03:45:00.608Z,134.52
2019-03-17T03:47:27.713Z,134.95
2019-03-17T03:49:57.139Z,133.32
2019-03-17T03:52:24.502Z,133.22
2019-03-17T03:54:51.538Z,134.45
2019-03-17T03:57:18.592Z,133.80
2019-03-17T03:59:46.058Z,133.82
2019-03-17T04:02:13.406Z,133.72
2019-03-17T04:04:40.656Z,134.15
2019-03-17T04:07:08.794Z,132.72
2019-03-17T04:09:36.193Z,132.80
2019-03-17T04:12:03.459Z,132.43
2019-03-17T04:14:30.950Z,133.57
2019-03-17T04:16:58.312Z,132.95
2019-03-17T04:19:25.378Z,132.80
2019-03-17T04:21:52.701Z,132.72
2019-03-17T04:24:19.742Z,132.63
2019-03-17T04:26:46.784Z,133.63
2019-03-17T04:29:13.986Z,132.87
2019-03-17T04:31:41.448Z,134.72
2019-03-17T04:34:08.467Z,132.90
2019-03-17T04:36:40.349Z,133.78
2019-03-17T04:39:06.624Z,133.10
2019-03-17T04:41:33.695Z,133.57
2019-03-17T04:44:00.782Z,132.67
2019-03-17T04:46:29.015Z,132.60
2019-03-17T04:48:56.122Z,133.30
2019-03-17T04:51:23.414Z,133.93
2019-03-17T04:53:50.461Z,132.85
2019-03-17T04:56:17.491Z,133.32
2019-03-17T04:58:44.561Z,133.35
2019-03-17T05:01:12.895Z,133.65
2019-03-17T05:03:40.296Z,133.07
2019-03-17T05:06:07.342Z,133.65
2019-03-17T05:08:34.403Z,133.20
2019-03-17T05:11:02.554Z,133.78
2019-03-17T05:13:29.575Z,132.87
2019-03-17T05:15:56.703Z,134.35
2019-03-17T05:18:25.212Z,133.40
2019-03-17T05:20:52.464Z,132.80
2019-03-17T05:23:19.514Z,133.12
2019-03-17T05:25:46.566Z,133.18
2019-03-17T05:28:13.670Z,134.32
2019-03-17T05:30:40.707Z,134.87
2019-03-17T05:33:08.125Z,134.07
2019-03-17T05:35:35.314Z,133.63
2019-03-17T05:38:02.334Z,133.20
2019-03-17T05:40:29.736Z,132.90
2019-03-17T05:42:56.802Z,133.10
2019-03-17T05:45:24.667Z,134.50
2019-03-17T05:47:52.183Z,132.82
2019-03-17T05:50:19.277Z,133.45
2019-03-17T05:52:46.303Z,134.00
2019-03-17T05:55:13.347Z,133.80
2019-03-17T05:57:40.406Z,133.93
2019-03-17T06:00:09.808Z,134.22
2019-03-17T06:02:36.856Z,135.63
2019-03-17T06:05:04.700Z,135.52
2019-03-17T06:07:31.761Z,134.78
2019-03-17T06:09:58.786Z,134.67
2019-03-17T06:12:25.848Z,135.52
2019-03-17T06:14:52.993Z,134.12
2019-03-17T06:17:20.097Z,134.60
2019-03-17T06:19:47.175Z,134.65
2019-03-17T06:22:18.467Z,137.35
2019-03-17T06:24:46.558Z,136.18
2019-03-17T06:27:13.624Z,134.63
2019-03-17T06:29:41.076Z,134.65
2019-03-17T06:32:10.532Z,135.28
2019-03-17T06:34:37.585Z,135.20
2019-03-17T06:37:04.730Z,135.48
2019-03-17T06:39:32.465Z,135.63
2019-03-17T06:41:59.501Z,135.05
2019-03-17T06:44:26.539Z,135.20
2019-03-17T06:46:53.599Z,135.85
2019-03-17T06:49:20.654Z,135.25
2019-03-17T06:51:47.715Z,135.78
2019-03-17T06:54:15.263Z,135.00
2019-03-17T06:56:42.322Z,135.22
2019-03-17T06:59:09.348Z,135.20
2019-03-17T07:01:36.696Z,136.10
2019-03-17T07:04:03.924Z,135.70
2019-03-17T07:06:30.967Z,134.22
2019-03-17T07:08:58.022Z,135.30
2019-03-17T07:11:25.086Z,135.55
2019-03-17T07:13:52.119Z,135.28
2019-03-17T07:16:19.810Z,134.80
2019-03-17T07:18:46.906Z,135.15
2019-03-17T07:21:13.981Z,136.07
2019-03-17T07:23:42.831Z,136.40
2019-03-17T07:26:10.100Z,135.37
2019-03-17T07:28:37.145Z,135.55
2019-03-17T07:31:05.361Z,136.68
2019-03-17T07:33:32.625Z,135.50
2019-03-17T07:35:59.662Z,135.97
2019-03-17T07:38:26.826Z,136.65
2019-03-17T07:40:53.914Z,138.30
2019-03-17T07:43:21.009Z,138.82
2019-03-17T07:45:48.519Z,138.32
2019-03-17T07:48:15.676Z,138.92
2019-03-17T07:50:42.786Z,139.80
2019-03-17T07:53:10.185Z,137.43
2019-03-17T07:55:37.231Z,138.22
2019-03-17T07:58:04.877Z,137.68
2019-03-17T08:00:32.548Z,136.68
2019-03-17T08:03:00.246Z,135.70
2019-03-17T08:05:27.417Z,136.52
2019-03-17T08:07:54.828Z,138.03
2019-03-17T08:10:21.882Z,137.82
2019-03-17T08:12:48.950Z,138.10
2019-03-17T08:15:16.397Z,139.15
2019-03-17T08:17:43.842Z,137.18
2019-03-17T08:20:11.326Z,137.10
2019-03-17T08:22:39.476Z,136.90
2019-03-17T08:25:06.727Z,137.12
2019-03-17T08:27:34.886Z,138.40
2019-03-17T08:30:01.954Z,137.60
2019-03-17T08:32:30.286Z,137.00
2019-03-17T08:34:57.425Z,136.47
2019-03-17T08:37:24.944Z,137.70
2019-03-17T08:39:52.114Z,136.62
2019-03-17T08:42:22.255Z,137.28
2019-03-17T08:44:51.782Z,136.85
2019-03-17T08:47:18.829Z,137.07
2019-03-17T08:49:45.863Z,138.70
2019-03-17T08:52:15.062Z,136.85
2019-03-17T08:54:43.250Z,136.97
2019-03-17T08:57:10.395Z,137.22
2019-03-17T08:59:37.474Z,135.37
2019-03-17T09:02:04.957Z,137.32
2019-03-17T09:04:32.194Z,136.62
2019-03-17T09:06:59.841Z,135.85
2019-03-17T09:09:28.864Z,137.97
2019-03-17T09:11:56.210Z,136.05
2019-03-17T09:14:23.306Z,136.95
2019-03-17T09:16:50.462Z,136.77
2019-03-17T09:19:17.995Z,136.40
2019-03-17T09:21:45.115Z,137.03
2019-03-17T09:24:17.069Z,137.50
2019-03-17T09:26:41.569Z,136.72
2019-03-17T09:29:08.690Z,136.62
2019-03-17T09:31:35.741Z,136.10
2019-03-17T09:34:06.697Z,137.60
2019-03-17T09:36:35.627Z,136.12
2019-03-17T09:39:03.863Z,137.35
2019-03-17T09:41:31.306Z,136.70
2019-03-17T09:43:58.349Z,138.52
2019-03-17T09:46:25.414Z,138.25
2019-03-17T09:48:52.920Z,138.82
2019-03-17T09:51:20.168Z,140.57
2019-03-17T09:53:47.355Z,138.07
2019-03-17T09:56:14.807Z,137.77
2019-03-17T09:58:41.873Z,140.25
2019-03-17T10:01:09.029Z,139.28
2019-03-17T10:03:36.194Z,139.80
2019-03-17T10:06:03.268Z,137.07
2019-03-17T10:08:30.556Z,137.92
2019-03-17T10:10:57.899Z,136.82
2019-03-17T10:13:25.038Z,136.85
2019-03-17T10:15:52.098Z,136.40
2019-03-17T10:18:19.561Z,137.75
2019-03-17T10:20:47.746Z,136.55
2019-03-17T10:23:14.763Z,137.62
2019-03-17T10:25:41.812Z,137.10
2019-03-17T10:28:08.917Z,137.03
2019-03-17T10:30:36.302Z,139.95
2019-03-17T10:33:04.625Z,139.25
2019-03-17T10:35:31.824Z,138.57
2019-03-17T10:37:59.423Z,137.97
2019-03-17T10:40:26.483Z,137.32
2019-03-17T10:42:53.574Z,139.45
2019-03-17T10:45:20.799Z,138.05
2019-03-17T10:47:47.882Z,136.47
2019-03-17T10:50:14.996Z,136.20
2019-03-17T10:52:42.195Z,135.88
2019-03-17T10:55:09.892Z,137.50
2019-03-17T10:57:37.293Z,138.32
2019-03-17T11:00:05.366Z,136.22
2019-03-17T11:02:32.935Z,135.40
2019-03-17T11:05:00.466Z,137.37
2019-03-17T11:07:27.497Z,137.18
2019-03-17T11:09:54.901Z,137.82
2019-03-17T11:12:22.049Z,136.18
2019-03-17T11:14:49.169Z,137.37
2019-03-17T11:17:16.769Z,136.92
2019-03-17T11:19:44.239Z,136.30
2019-03-17T11:22:11.280Z,136.52
2019-03-17T11:24:39.186Z,135.07
2019-03-17T11:27:06.262Z,135.37
2019-03-17T11:29:33.631Z,134.60
2019-03-17T11:32:01.330Z,134.05
2019-03-17T11:34:28.659Z,134.82
2019-03-17T11:36:56.002Z,133.72
2019-03-17T11:39:23.406Z,133.93
2019-03-17T11:41:50.507Z,134.25
2019-03-17T11:44:17.587Z,133.78
2019-03-17T11:46:44.669Z,132.07
2019-03-17T11:49:12.294Z,132.05
2019-03-17T11:51:40.535Z,132.32
2019-03-17T11:54:07.591Z,131.75
2019-03-17T11:56:35.161Z,129.95
2019-03-17T11:59:02.994Z,130.80
2019-03-17T12:01:30.174Z,129.95
2019-03-17T12:03:57.658Z,131.50
2019-03-17T12:06:26.540Z,130.78
2019-03-17T12:08:54.725Z,133.20
2019-03-17T12:11:22.526Z,131.20
2019-03-17T12:13:49.548Z,130.97
2019-03-17T12:16:16.848Z,131.10
2019-03-17T12:18:44.325Z,131.15
2019-03-17T12:21:11.719Z,131.35
2019-03-17T12:23:38.806Z,129.35
2019-03-17T12:26:05.967Z,129.75
2019-03-17T12:28:33.460Z,129.90
2019-03-17T12:31:01.948Z,129.07
2019-03-17T12:33:29.909Z,129.93
2019-03-17T12:35:56.997Z,129.00
2019-03-17T12:38:24.189Z,128.75
2019-03-17T12:40:51.471Z,130.12
2019-03-17T12:43:18.525Z,131.32
2019-03-17T12:45:45.596Z,130.70
2019-03-17T12:48:13.070Z,131.05
2019-03-17T12:50:40.144Z,129.42
2019-03-17T12:53:08.419Z,130.45
2019-03-17T12:55:35.484Z,129.65
2019-03-17T12:58:02.762Z,131.97
2019-03-17T13:00:29.815Z,130.87
2019-03-17T13:02:57.515Z,131.07
2019-03-17T13:05:25.198Z,130.70
2019-03-17T13:07:52.259Z,132.52
2019-03-17T13:10:19.364Z,133.45
2019-03-17T13:12:46.663Z,132.18
2019-03-17T13:15:13.786Z,131.20
2019-03-17T13:17:40.880Z,132.12
2019-03-17T13:20:09.553Z,130.90
2019-03-17T13:22:36.760Z,131.22
2019-03-17T13:25:04.302Z,130.78
2019-03-17T13:27:33.914Z,131.37
2019-03-17T13:30:01.042Z,132.40
2019-03-17T13:32:32.206Z,132.47
2019-03-17T13:34:59.268Z,133.25
2019-03-17T13:37:26.332Z,133.10
2019-03-17T13:39:53.435Z,130.25
2019-03-17T13:42:20.930Z,131.47
2019-03-17T13:44:48.325Z,130.95
2019-03-17T13:47:15.552Z,131.93
2019-03-17T13:49:42.820Z,132.18
2019-03-17T13:52:09.902Z,130.97
2019-03-17T13:54:36.972Z,131.70
2019-03-17T13:57:04.403Z,132.30
2019-03-17T13:59:31.486Z,131.18
2019-03-17T14:01:58.556Z,130.78
2019-03-17T14:04:26.111Z,131.93
2019-03-17T14:06:53.191Z,133.45
2019-03-17T14:09:20.294Z,132.55
2019-03-17T14:11:47.795Z,131.93
2019-03-17T14:14:14.865Z,131.97
2019-03-17T14:16:42.806Z,132.18
2019-03-17T14:19:10.283Z,131.57
2019-03-17T14:21:37.388Z,132.12
2019-03-17T14:24:04.628Z,131.97
2019-03-17T14:26:31.865Z,131.70
2019-03-17T14:28:59.113Z,132.67
2019-03-17T14:31:26.245Z,131.80
2019-03-17T14:33:53.852Z,132.40
2019-03-17T14:36:20.988Z,133.12
2019-03-17T14:38:48.307Z,133.65
2019-03-17T14:41:15.371Z,133.82
2019-03-17T14:43:42.462Z,133.90
2019-03-17T14:46:09.516Z,135.32
2019-03-17T14:48:38.077Z,137.82
2019-03-17T14:51:05.161Z,138.15
2019-03-17T14:53:32.338Z,137.85
2019-03-17T14:55:59.472Z,134.60
2019-03-17T14:58:26.662Z,135.48
2019-03-17T15:00:59.842Z,136.68
2019-03-17T15:03:29.006Z,135.65
2019-03-17T15:05:56.506Z,135.88
2019-03-17T15:08:23.729Z,137.20
2019-03-17T15:10:51.103Z,135.85
2019-03-17T15:13:18.459Z,136.70
2019-03-17T15:15:45.582Z,137.10
2019-03-17T15:18:13.100Z,136.00
2019-03-17T15:20:40.335Z,136.00
2019-03-17T15:23:08.878Z,137.10
2019-03-17T15:25:37.061Z,135.43
2019-03-17T15:28:04.366Z,135.88
2019-03-17T15:30:31.489Z,134.37
2019-03-17T15:32:58.599Z,135.25
2019-03-17T15:35:25.851Z,135.93
2019-03-17T15:37:52.991Z,134.93
2019-03-17T15:40:20.189Z,133.72
2019-03-17T15:42:47.928Z,135.55
2019-03-17T15:45:17.551Z,134.97
2019-03-17T15:47:45.889Z,134.67
2019-03-17T15:50:14.371Z,134.37
2019-03-17T15:52:41.557Z,133.35
2019-03-17T15:55:09.539Z,134.95
2019-03-17T15:57:36.689Z,134.87
2019-03-17T16:00:05.651Z,136.32
2019-03-17T16:02:32.867Z,132.60
2019-03-17T16:05:00.778Z,134.75
2019-03-17T16:07:28.208Z,132.15
2019-03-17T16:09:55.526Z,132.93
2019-03-17T16:12:22.929Z,135.35
2019-03-17T16:14:50.278Z,134.52
2019-03-17T16:17:17.472Z,135.37
2019-03-17T16:19:44.552Z,133.90
2019-03-17T16:22:12.096Z,132.47
2019-03-17T16:24:39.205Z,133.22
2019-03-17T16:27:06.372Z,134.12
2019-03-17T16:29:33.520Z,134.27
2019-03-17T16:32:00.658Z,133.90
2019-03-17T16:34:28.003Z,133.72
2019-03-17T16:36:55.308Z,131.55
2019-03-17T16:39:22.439Z,132.45
2019-03-17T16:41:52.761Z,132.07
2019-03-17T16:44:19.911Z,133.87
2019-03-17T16:46:47.116Z,132.45
2019-03-17T16:49:14.513Z,133.67
2019-03-17T16:51:41.645Z,134.90
2019-03-17T16:54:08.951Z,132.75
2019-03-17T16:56:36.018Z,132.63
2019-03-17T16:59:03.134Z,132.35
2019-03-17T17:01:30.507Z,133.20
2019-03-17T17:03:57.571Z,131.90
2019-03-17T17:06:26.489Z,132.85
2019-03-17T17:08:54.247Z,131.87
2019-03-17T17:11:21.346Z,130.63
2019-03-17T17:13:49.814Z,130.70
2019-03-17T17:16:17.375Z,130.57
2019-03-17T17:18:44.452Z,131.93
2019-03-17T17:21:11.537Z,130.45
2019-03-17T17:23:38.612Z,131.07
2019-03-17T17:26:05.933Z,130.78
2019-03-17T17:28:33.115Z,131.47
2019-03-17T17:31:00.563Z,130.85
2019-03-17T17:33:30.665Z,133.18
2019-03-17T17:35:59.049Z,132.00
2019-03-17T17:38:26.838Z,131.65
2019-03-17T17:40:54.208Z,131.75
2019-03-17T17:43:21.498Z,131.35
2019-03-17T17:45:53.059Z,131.90
2019-03-17T17:48:20.502Z,130.75
2019-03-17T17:50:47.852Z,132.35
2019-03-17T17:53:16.781Z,132.82
2019-03-17T17:55:44.813Z,130.72
2019-03-17T17:58:12.159Z,131.75
2019-03-17T18:00:41.216Z,130.80
2019-03-17T18:03:11.056Z,131.70
2019-03-17T18:05:38.227Z,132.57
2019-03-17T18:08:05.444Z,133.00
2019-03-17T18:10:34.423Z,133.05
2019-03-17T18:13:03.134Z,133.05
2019-03-17T18:15:30.250Z,133.37
2019-03-17T18:17:57.324Z,131.70
2019-03-17T18:20:24.894Z,131.52
2019-03-17T18:22:52.243Z,132.43
2019-03-17T18:25:19.568Z,131.78
2019-03-17T18:27:46.964Z,132.37
2019-03-17T18:30:15.174Z,131.60
2019-03-17T18:32:42.262Z,132.67
2019-03-17T18:35:11.551Z,130.60
2019-03-17T18:37:38.719Z,131.37
2019-03-17T18:40:06.847Z,131.87
2019-03-17T18:42:34.154Z,131.95
2019-03-17T18:45:01.312Z,130.67
2019-03-17T18:47:30.630Z,130.65
2019-03-17T18:49:58.154Z,132.52
2019-03-17T18:52:25.519Z,130.97
2019-03-17T18:54:52.587Z,129.45
2019-03-17T18:57:19.672Z,133.72
2019-03-17T18:59:46.858Z,129.82
2019-03-17T19:02:14.054Z,131.97
2019-03-17T19:04:42.423Z,130.22
2019-03-17T19:07:09.510Z,130.27
2019-03-17T19:09:36.627Z,130.32
2019-03-17T19:12:04.076Z,132.40
2019-03-17T19:14:31.183Z,129.57
2019-03-17T19:16:58.264Z,130.55
2019-03-17T19:19:25.355Z,131.97
2019-03-17T19:21:52.881Z,130.12
2019-03-17T19:24:20.078Z,131.07
2019-03-17T19:26:47.188Z,130.47
2019-03-17T19:29:14.628Z,131.30
2019-03-17T19:31:41.913Z,129.80
2019-03-17T19:34:08.963Z,131.47
2019-03-17T19:36:37.131Z,130.65
2019-03-17T19:39:06.063Z,129.93
2019-03-17T19:41:33.196Z,129.47
2019-03-17T19:44:00.318Z,129.03
2019-03-17T19:46:27.386Z,130.20
2019-03-17T19:48:54.471Z,129.68
2019-03-17T19:51:21.558Z,130.43
2019-03-17T19:53:48.608Z,130.47
2019-03-17T19:56:16.260Z,128.87
2019-03-17T19:58:43.354Z,129.10
2019-03-17T20:01:11.569Z,131.10
2019-03-17T20:03:38.676Z,129.35
2019-03-17T20:06:05.934Z,129.27
2019-03-17T20:08:33.731Z,130.65
2019-03-17T20:11:01.474Z,130.45
2019-03-17T20:13:28.714Z,130.52
2019-03-17T20:15:55.837Z,131.40
2019-03-17T20:18:24.004Z,130.90
2019-03-17T20:20:51.085Z,130.70
2019-03-17T20:23:21.364Z,131.27
2019-03-17T20:25:47.978Z,130.75
2019-03-17T20:28:16.461Z,132.78
2019-03-17T20:30:43.758Z,130.90
2019-03-17T20:33:10.894Z,130.82
2019-03-17T20:35:39.416Z,131.00
2019-03-17T20:38:07.557Z,130.50
2019-03-17T20:40:34.697Z,130.60
2019-03-17T20:43:24.119Z,132.27
2019-03-17T20:45:47.613Z,127.58
2019-03-17T20:48:16.587Z,128.72
2019-03-17T20:50:43.919Z,130.47
2019-03-17T20:53:11.034Z,129.27
2019-03-17T20:55:39.969Z,129.45
2019-03-17T20:58:08.136Z,129.42
2019-03-17T21:00:35.881Z,128.53
2019-03-17T21:03:03.508Z,127.17
2019-03-17T21:05:32.616Z,127.35
2019-03-17T21:08:00.081Z,126.02
2019-03-17T21:10:27.149Z,126.18
2019-03-17T21:12:56.027Z,126.22
2019-03-17T21:15:23.178Z,126.45
2019-03-17T21:17:50.584Z,129.15
2019-03-17T21:20:17.727Z,125.43
2019-03-17T21:22:44.816Z,125.92
2019-03-17T21:25:13.263Z,128.47
2019-03-17T21:27:40.340Z,126.77
2019-03-17T21:30:12.431Z,126.80
2019-03-17T21:32:40.164Z,125.20
2019-03-17T21:35:07.263Z,125.77
2019-03-17T21:37:34.335Z,124.90
2019-03-17T21:40:03.007Z,126.27
2019-03-17T21:42:30.374Z,126.23
2019-03-17T21:44:57.461Z,124.67
2019-03-17T21:47:24.485Z,125.77
2019-03-17T21:49:51.946Z,125.27
2019-03-17T21:52:19.107Z,124.63
2019-03-17T21:54:48.464Z,126.53
2019-03-17T21:57:15.867Z,127.63
2019-03-17T21:59:44.070Z,125.97
2019-03-17T22:02:13.076Z,126.53
2019-03-17T22:04:40.503Z,130.07
2019-03-17T22:07:07.785Z,126.92
2019-03-17T22:09:35.053Z,126.22
2019-03-17T22:12:02.650Z,127.72
2019-03-17T22:14:29.859Z,127.67
2019-03-17T22:16:56.921Z,126.92
2019-03-17T22:19:24.063Z,129.85
2019-03-17T22:22:09.211Z,130.03
2019-03-17T22:25:03.602Z,128.93
2019-03-17T22:27:32.201Z,127.25
2019-03-17T22:29:59.285Z,127.78
2019-03-17T22:32:26.647Z,128.55
2019-03-17T22:34:53.780Z,130.15
2019-03-17T22:37:20.863Z,127.07
2019-03-17T22:39:48.300Z,126.87
2019-03-17T22:42:15.395Z,129.03
2019-03-17T22:44:42.448Z,127.07
2019-03-17T22:47:09.518Z,126.40
2019-03-17T22:49:36.618Z,127.30
2019-03-17T22:52:03.655Z,127.62
2019-03-17T22:54:31.086Z,126.38
2019-03-17T22:56:58.218Z,127.10
2019-03-17T22:59:26.382Z,127.82
2019-03-17T23:01:53.576Z,130.80
2019-03-17T23:04:22.237Z,127.17
2019-03-17T23:06:49.541Z,125.82
2019-03-17T23:09:16.608Z,126.20
2019-03-17T23:11:45.192Z,125.70
2019-03-17T23:14:12.292Z,125.42
2019-03-17T23:16:39.394Z,128.18
2019-03-17T23:19:06.436Z,126.35
2019-03-17T23:21:33.975Z,127.30
2019-03-17T23:24:01.248Z,126.05
2019-03-17T23:26:28.441Z,126.82
2019-03-17T23:28:55.703Z,126.38
2019-03-17T23:31:22.746Z,126.30
2019-03-17T23:33:49.831Z,126.70
2019-03-17T23:36:16.900Z,127.58
2019-03-17T23:38:57.583Z,126.80
2019-03-17T23:41:36.606Z,127.40
2019-03-17T23:44:04.359Z,126.25
2019-03-17T23:46:31.385Z,126.33
2019-03-17T23:48:58.469Z,127.20
2019-03-17T23:51:27.308Z,127.40
2019-03-17T23:53:54.382Z,126.55
2019-03-17T23:56:21.384Z,127.47
2019-03-17T23:58:49.796Z,126.80
